Airfield :
LOGIN :

Register | Disclaimer

   EN    FR    IT 

 










Legend :    VFR   Marginal VFR   IFR   Intensive IFR   Very Intensive IFR
Visi :
Ceiling :
>= 8 km
>= 3000ft
5 to 8 km
1000 to 3000 ft
1500m to 5 km
500 to 1000 ft
800 to 1500m
200 to 500 ft
< 800m
< 200 ft
Symbols :   Thunderstorms  Fog  Heavy snow  Heavy precipitations  Wind > 20 kt
SIGMETs :     Misc.  Thunderstorms  Icing  Turbulence  Mountain Waves  Volcanic Ashes







- Airport Elevation : 230 ft


ETHB - Buckeburg Army

CURRENT METAR :
  • 210720Z 10012KT 8000 FEW016 BKN020 02/M01 Q1018 WHT WHT

EXPIRED METARs :
  • 210648Z 10011KT 8000 FEW016 BKN018 02/M01 Q1017 WHT WHT
  • 210620Z 10011KT 7000 BKN016 02/M01 Q1017 WHT WHT
  • 210520Z 09014G24KT 7000 BKN017 02/M01 Q1016 WHT WHT
  • 210420Z AUTO 10014KT 7000 // ////// 02/M01 Q1016 ///

TAF TAF ETHB
Valid from the 21 at 06:00 until the 21 at 15:00 UTC


210522Z 2106/2115 09012G22KT 8000 NSW FEW012 BKN015
No reported NOTAMs for that airfield.



MET'MAP, your aeronautical weather chart ! - Copyright ORBIFLY December 2007 - Disclaimer

ORBIFLY MET'MAP TEAM :

Programming & Development : Alexandra Zaïnal
Concept & Development : Baudouin d'Aumeries
Co-Development & Prog : Marc-Olivier Méhu
Technical & hardware support : Manuel Goepfert

Contact : metmap@orbifly.com




SOURCES & CREDITS :

   NOAA